createdAt,value
2023-04-25T00:00:06.722Z,10.1
2023-04-25T00:01:15.272Z,10
2023-04-25T00:02:23.634Z,10
2023-04-25T00:03:32.141Z,10
2023-04-25T00:04:40.811Z,10.5
2023-04-25T00:05:48.827Z,10.5
2023-04-25T00:06:57.142Z,10.5
2023-04-25T00:08:05.680Z,10.4
2023-04-25T00:09:14.049Z,10.4
2023-04-25T00:10:22.395Z,10.4
2023-04-25T00:11:30.916Z,9.8
2023-04-25T00:12:39.260Z,9.8
2023-04-25T00:13:47.794Z,9.8
2023-04-25T00:14:56.137Z,10.3
2023-04-25T00:16:04.484Z,10.3
2023-04-25T00:17:12.778Z,10.3
2023-04-25T00:18:21.331Z,10.3
2023-04-25T00:19:29.676Z,10.3
2023-04-25T00:20:38.026Z,10.3
2023-04-25T00:21:46.547Z,10.5
2023-04-25T00:22:54.900Z,10.5
2023-04-25T00:24:03.222Z,10.5
2023-04-25T00:25:11.840Z,10.5
2023-04-25T00:26:20.151Z,10.5
2023-04-25T00:27:28.478Z,10.5
2023-04-25T00:28:37.023Z,10.6
2023-04-25T00:29:45.619Z,10.6
2023-04-25T00:30:53.959Z,10.6
2023-04-25T00:32:02.560Z,10.2
2023-04-25T00:33:10.886Z,10.2
2023-04-25T00:34:19.180Z,10.2
2023-04-25T00:35:27.707Z,10.6
2023-04-25T00:36:36.042Z,10.6
2023-04-25T00:37:44.360Z,10.6
2023-04-25T00:38:52.883Z,10.4
2023-04-25T00:40:01.227Z,10.4
2023-04-25T00:41:09.574Z,10.4
2023-04-25T00:42:18.069Z,10.7
2023-04-25T00:43:26.428Z,10.7
2023-04-25T00:44:34.765Z,10.7
2023-04-25T00:45:43.330Z,10.3
2023-04-25T00:46:51.676Z,10.3
2023-04-25T00:48:00.030Z,10.3
2023-04-25T00:49:08.515Z,10.5
2023-04-25T00:50:16.842Z,10.5
2023-04-25T00:51:25.180Z,10.5
2023-04-25T00:52:33.723Z,10.7
2023-04-25T00:53:42.048Z,10.7
2023-04-25T00:54:50.405Z,10.7
2023-04-25T00:55:58.937Z,10.5
2023-04-25T00:57:07.334Z,10.5
2023-04-25T00:58:15.612Z,10.5
2023-04-25T00:59:24.176Z,10.8
2023-04-25T01:00:32.483Z,10.8
2023-04-25T01:01:40.815Z,10.8
2023-04-25T01:02:49.438Z,10.2
2023-04-25T01:03:57.767Z,10.2
2023-04-25T01:05:06.045Z,10.2
2023-04-25T01:06:14.588Z,10.7
2023-04-25T01:07:22.931Z,10.7
2023-04-25T01:08:31.279Z,10.7
2023-04-25T01:09:39.837Z,10.6
2023-04-25T01:10:48.173Z,10.6
2023-04-25T01:11:56.509Z,10.6
2023-04-25T01:13:05.093Z,11
2023-04-25T01:14:13.394Z,11
2023-04-25T01:15:21.727Z,11
2023-04-25T01:16:30.297Z,10.8
2023-04-25T01:17:38.624Z,10.8
2023-04-25T01:18:46.955Z,10.8
2023-04-25T01:19:55.486Z,10.3
2023-04-25T01:21:03.810Z,10.3
2023-04-25T01:22:12.142Z,10.3
2023-04-25T01:23:20.688Z,10.5
2023-04-25T01:24:29.021Z,10.5
2023-04-25T01:25:37.361Z,10.5
2023-04-25T01:26:45.911Z,11.4
2023-04-25T01:27:54.236Z,11.4
2023-04-25T01:29:02.591Z,11.4
2023-04-25T01:30:11.120Z,10.8
2023-04-25T01:31:19.508Z,10.8
2023-04-25T01:32:27.839Z,10.8
2023-04-25T01:33:36.348Z,11.4
2023-04-25T01:34:44.689Z,11.4
2023-04-25T01:35:53.034Z,11.4
2023-04-25T01:37:01.560Z,10.9
2023-04-25T01:38:09.895Z,10.9
2023-04-25T01:39:18.223Z,10.9
2023-04-25T01:40:26.780Z,11.3
2023-04-25T01:41:35.153Z,11.3
2023-04-25T01:42:43.503Z,11.3
2023-04-25T01:43:52.283Z,11.1
2023-04-25T01:45:00.397Z,11.1
2023-04-25T01:46:08.747Z,11.1
2023-04-25T01:47:17.229Z,11.3
2023-04-25T01:48:25.569Z,11.3
2023-04-25T01:49:33.915Z,11.3
2023-04-25T01:50:42.438Z,10.5
2023-04-25T01:51:50.768Z,10.5
2023-04-25T01:52:59.114Z,10.5
2023-04-25T01:54:07.657Z,10.7
2023-04-25T01:55:15.989Z,10.7
2023-04-25T01:56:24.310Z,10.7
2023-04-25T01:57:32.868Z,10.5
2023-04-25T01:58:41.198Z,10.5
2023-04-25T01:59:49.534Z,10.5
2023-04-25T02:00:58.098Z,10.2
2023-04-25T02:02:06.405Z,10.2
2023-04-25T02:03:14.844Z,10.2
2023-04-25T02:04:23.324Z,9.9
2023-04-25T02:05:31.618Z,9.9
2023-04-25T02:06:39.944Z,9.9
2023-04-25T02:07:48.500Z,10.5
2023-04-25T02:08:56.857Z,10.5
2023-04-25T02:10:05.192Z,10.5
2023-04-25T02:11:13.738Z,10.7
2023-04-25T02:12:22.069Z,10.7
2023-04-25T02:13:30.398Z,10.7
2023-04-25T02:14:38.959Z,11.1
2023-04-25T02:15:47.366Z,11.1
2023-04-25T02:16:55.708Z,11.1
2023-04-25T02:18:04.203Z,10.7
2023-04-25T02:19:12.503Z,10.7
2023-04-25T02:20:20.840Z,10.7
2023-04-25T02:21:29.405Z,10
2023-04-25T02:22:37.747Z,10
2023-04-25T02:23:46.069Z,10
2023-04-25T02:24:54.653Z,10.1
2023-04-25T02:26:02.997Z,10.1
2023-04-25T02:27:11.312Z,10.1
2023-04-25T02:28:19.962Z,9.3
2023-04-25T02:29:28.289Z,9.3
2023-04-25T02:30:36.626Z,9.3
2023-04-25T02:31:45.212Z,9.5
2023-04-25T02:32:53.591Z,9.5
2023-04-25T02:34:01.858Z,9.5
2023-04-25T02:35:10.390Z,9.5
2023-04-25T02:36:18.724Z,9.5
2023-04-25T02:37:27.060Z,9.5
2023-04-25T02:38:35.603Z,9
2023-04-25T02:39:43.939Z,9
2023-04-25T02:40:52.260Z,9
2023-04-25T02:42:00.816Z,10.2
2023-04-25T02:43:09.151Z,10.2
2023-04-25T02:44:17.491Z,10.2
2023-04-25T02:45:26.045Z,9.3
2023-04-25T02:46:39.240Z,9.3
2023-04-25T02:47:42.701Z,9.3
2023-04-25T02:48:51.252Z,9.3
2023-04-25T02:49:59.567Z,9.3
2023-04-25T02:51:07.896Z,9.3
2023-04-25T02:52:16.446Z,9.5
2023-04-25T02:53:24.782Z,9.5
2023-04-25T02:54:33.103Z,9.5
2023-04-25T02:55:41.653Z,9.7
2023-04-25T02:56:49.989Z,9.7
2023-04-25T02:57:58.318Z,9.7
2023-04-25T02:59:06.848Z,9.4
2023-04-25T03:00:15.207Z,9.4
2023-04-25T03:01:23.576Z,9.4
2023-04-25T03:02:32.170Z,9.4
2023-04-25T03:03:40.438Z,9.4
2023-04-25T03:04:48.782Z,9.4
2023-04-25T03:05:57.280Z,9.6
2023-04-25T03:07:05.625Z,9.6
2023-04-25T03:08:13.957Z,9.6
2023-04-25T03:09:22.491Z,9.1
2023-04-25T03:10:30.837Z,9.1
2023-04-25T03:11:39.157Z,9.1
2023-04-25T03:12:47.713Z,8.6
2023-04-25T03:13:56.033Z,8.6
2023-04-25T03:15:04.369Z,8.6
2023-04-25T03:16:13.003Z,7.4
2023-04-25T03:17:21.281Z,7.4
2023-04-25T03:18:29.584Z,7.4
2023-04-25T03:19:38.121Z,7.8
2023-04-25T03:20:46.505Z,7.8
2023-04-25T03:21:54.803Z,7.8
2023-04-25T03:23:03.350Z,7.9
2023-04-25T03:24:11.683Z,7.9
2023-04-25T03:25:20.055Z,7.9
2023-04-25T03:26:28.565Z,7.3
2023-04-25T03:27:36.908Z,7.3
2023-04-25T03:28:45.239Z,7.3
2023-04-25T03:29:53.778Z,7.9
2023-04-25T03:31:02.110Z,7.9
2023-04-25T03:32:10.484Z,7.9
2023-04-25T03:33:18.975Z,7.5
2023-04-25T03:34:27.303Z,7.5
2023-04-25T03:35:35.644Z,7.5
2023-04-25T03:36:44.175Z,7.2
2023-04-25T03:37:52.853Z,7.2
2023-04-25T03:39:01.238Z,7.2
2023-04-25T03:40:09.797Z,7.4
2023-04-25T03:41:18.134Z,7.4
2023-04-25T03:42:26.486Z,7.4
2023-04-25T03:43:35.024Z,7.6
2023-04-25T03:44:43.351Z,7.6
2023-04-25T03:45:51.745Z,7.6
2023-04-25T03:47:00.304Z,7.5
2023-04-25T03:48:08.728Z,7.5
2023-04-25T03:49:18.649Z,7.5
2023-04-25T03:50:25.556Z,7.2
2023-04-25T03:51:33.884Z,7.2
2023-04-25T03:52:42.257Z,7.2
2023-04-25T03:53:51.005Z,6.7
2023-04-25T03:54:59.166Z,6.7
2023-04-25T03:56:07.492Z,6.7
2023-04-25T03:57:16.054Z,7.3
2023-04-25T03:58:24.376Z,7.3
2023-04-25T03:59:32.711Z,7.3
2023-04-25T04:00:41.277Z,7.9
2023-04-25T04:01:49.599Z,7.9
2023-04-25T04:02:58.026Z,7.9
2023-04-25T04:04:06.668Z,7.8
2023-04-25T04:05:14.997Z,7.8
2023-04-25T04:06:23.174Z,7.8
2023-04-25T04:07:31.739Z,9.2
2023-04-25T04:08:40.198Z,9.2
2023-04-25T04:09:48.407Z,9.2
2023-04-25T04:10:56.954Z,9.1
2023-04-25T04:12:05.299Z,9.1
2023-04-25T04:13:13.672Z,9.1
2023-04-25T04:14:22.217Z,7.8
2023-04-25T04:15:30.550Z,7.8
2023-04-25T04:16:38.901Z,7.8
2023-04-25T04:17:47.471Z,7.8
2023-04-25T04:18:55.781Z,7.8
2023-04-25T04:20:04.122Z,7.8
2023-04-25T04:21:12.671Z,7.6
2023-04-25T04:22:21.021Z,7.6
2023-04-25T04:23:29.357Z,7.6
2023-04-25T04:24:37.929Z,7.4
2023-04-25T04:25:46.266Z,7.4
2023-04-25T04:26:54.609Z,7.4
2023-04-25T04:28:03.142Z,6.9
2023-04-25T04:29:11.480Z,6.9
2023-04-25T04:30:19.825Z,6.9
2023-04-25T04:31:28.426Z,6.9
2023-04-25T04:32:36.733Z,6.9
2023-04-25T04:33:45.046Z,6.9
2023-04-25T04:34:53.613Z,6.6
2023-04-25T04:36:01.959Z,6.6
2023-04-25T04:37:10.311Z,6.6
2023-04-25T04:38:18.858Z,6.8
2023-04-25T04:39:27.208Z,6.8
2023-04-25T04:40:35.565Z,6.8
2023-04-25T04:41:44.110Z,6.5
2023-04-25T04:42:52.434Z,6.5
2023-04-25T04:44:00.770Z,6.5
2023-04-25T04:45:09.338Z,6.7
2023-04-25T04:46:17.679Z,6.7
2023-04-25T04:47:26.020Z,6.7
2023-04-25T04:48:34.538Z,5.5
2023-04-25T04:49:42.882Z,5.5
2023-04-25T04:50:51.216Z,5.5
2023-04-25T04:51:59.882Z,6.6
2023-04-25T04:53:08.122Z,6.6
2023-04-25T04:54:16.453Z,6.6
2023-04-25T04:55:24.995Z,5.7
2023-04-25T04:56:33.366Z,5.7
2023-04-25T04:57:41.692Z,5.7
2023-04-25T04:58:50.233Z,6.3
2023-04-25T04:59:58.573Z,6.3
2023-04-25T05:01:06.921Z,6.3
2023-04-25T05:02:15.447Z,6.5
2023-04-25T05:03:23.926Z,6.5
2023-04-25T05:04:32.219Z,6.5
2023-04-25T05:05:40.657Z,6.6
2023-04-25T05:06:49.331Z,6.6
2023-04-25T05:07:57.385Z,6.6
2023-04-25T05:09:05.915Z,6.3
2023-04-25T05:10:14.254Z,6.3
2023-04-25T05:11:22.621Z,6.3
2023-04-25T05:12:31.203Z,6.2
2023-04-25T05:13:39.530Z,6.2
2023-04-25T05:14:47.862Z,6.2
2023-04-25T05:15:56.399Z,6.3
2023-04-25T05:17:04.746Z,6.3
2023-04-25T05:18:13.087Z,6.3
2023-04-25T05:19:21.604Z,6.5
2023-04-25T05:20:31.313Z,6.5
2023-04-25T05:21:39.676Z,6.5
2023-04-25T05:22:48.221Z,7
2023-04-25T05:23:56.549Z,7
2023-04-25T05:25:04.932Z,7
2023-04-25T05:26:13.426Z,7.2
2023-04-25T05:27:21.759Z,7.2
2023-04-25T05:28:30.120Z,7.2
2023-04-25T05:29:38.639Z,6.9
2023-04-25T05:30:46.968Z,6.9
2023-04-25T05:31:55.357Z,6.9
2023-04-25T05:33:03.911Z,6.7
2023-04-25T05:34:12.221Z,6.7
2023-04-25T05:35:20.573Z,6.7
2023-04-25T05:36:29.098Z,7.4
2023-04-25T05:37:37.450Z,7.4
2023-04-25T05:38:45.764Z,7.4
2023-04-25T05:39:54.331Z,6.7
2023-04-25T05:41:02.687Z,6.7
2023-04-25T05:42:11.029Z,6.7
2023-04-25T05:43:19.548Z,7.5
2023-04-25T05:44:27.917Z,7.5
2023-04-25T05:45:36.252Z,7.5
2023-04-25T05:46:44.788Z,10.5
2023-04-25T05:47:53.191Z,10.5
2023-04-25T05:49:01.478Z,10.5
2023-04-25T05:50:10.049Z,7.5
2023-04-25T05:51:18.376Z,7.5
2023-04-25T05:52:26.707Z,7.5
2023-04-25T05:53:35.277Z,6.9
2023-04-25T05:54:43.610Z,6.9
2023-04-25T05:55:51.914Z,6.9
2023-04-25T05:57:00.481Z,7.1
2023-04-25T05:58:08.812Z,7.1
2023-04-25T05:59:17.157Z,7.1
2023-04-25T06:00:25.725Z,16.200001
2023-04-25T06:01:34.040Z,16.200001
2023-04-25T06:02:42.498Z,16.200001
2023-04-25T06:03:51.323Z,6.9
2023-04-25T06:04:59.458Z,6.9
2023-04-25T06:06:07.683Z,6.9
2023-04-25T06:07:16.209Z,7.2
2023-04-25T06:08:24.544Z,7.2
2023-04-25T06:09:32.883Z,7.2
2023-04-25T06:10:41.450Z,6.6
2023-04-25T06:11:49.795Z,6.6
2023-04-25T06:12:58.135Z,6.6
2023-04-25T06:14:06.683Z,7.3
2023-04-25T06:15:26.989Z,7.3
2023-04-25T06:16:23.413Z,7.3
2023-04-25T06:17:31.946Z,7.1
2023-04-25T06:18:40.242Z,7.1
2023-04-25T06:19:48.570Z,7.1
2023-04-25T06:20:57.129Z,7.5
2023-04-25T06:22:05.462Z,7.5
2023-04-25T06:23:13.803Z,7.5
2023-04-25T06:24:22.344Z,7
2023-04-25T06:25:30.708Z,7
2023-04-25T06:26:39.069Z,7
2023-04-25T06:27:47.636Z,6.8
2023-04-25T06:28:55.988Z,6.8
2023-04-25T06:30:04.327Z,6.8
2023-04-25T06:31:12.904Z,7.4
2023-04-25T06:32:21.263Z,7.4
2023-04-25T06:33:29.568Z,7.4
2023-04-25T06:34:38.138Z,7.3
2023-04-25T06:35:46.515Z,7.3
2023-04-25T06:36:54.839Z,7.3
2023-04-25T06:38:03.397Z,6.5
2023-04-25T06:39:11.726Z,6.5
2023-04-25T06:40:20.074Z,6.5
2023-04-25T06:41:28.596Z,6.4
2023-04-25T06:42:36.936Z,6.4
2023-04-25T06:43:45.273Z,6.4
2023-04-25T06:44:53.840Z,6.4
2023-04-25T06:46:02.188Z,6.4
2023-04-25T06:47:10.524Z,6.4
2023-04-25T06:48:19.094Z,6.1
2023-04-25T06:49:27.420Z,6.1
2023-04-25T06:50:35.760Z,6.1
2023-04-25T06:51:44.310Z,6.4
2023-04-25T06:52:52.644Z,6.4
2023-04-25T06:54:00.976Z,6.4
2023-04-25T06:55:09.530Z,6
2023-04-25T06:56:17.872Z,6
2023-04-25T06:57:26.192Z,6
2023-04-25T06:58:34.725Z,5.9
2023-04-25T06:59:43.073Z,5.9
2023-04-25T07:00:51.467Z,5.9
2023-04-25T07:01:59.992Z,5.7
2023-04-25T07:03:08.517Z,5.7
2023-04-25T07:04:16.851Z,5.7
2023-04-25T07:05:25.248Z,5.8
2023-04-25T07:06:33.595Z,5.8
2023-04-25T07:07:41.928Z,5.8
2023-04-25T07:08:50.543Z,6
2023-04-25T07:09:58.830Z,6
2023-04-25T07:11:07.167Z,6
2023-04-25T07:12:15.721Z,5.7
2023-04-25T07:13:24.056Z,5.7
2023-04-25T07:14:32.407Z,5.7
2023-04-25T07:15:40.945Z,5.4
2023-04-25T07:16:49.323Z,5.4
2023-04-25T07:17:57.708Z,5.4
2023-04-25T07:19:06.181Z,5.9
2023-04-25T07:20:14.529Z,5.9
2023-04-25T07:21:22.858Z,5.9
2023-04-25T07:22:31.417Z,5.5
2023-04-25T07:23:40.071Z,5.5
2023-04-25T07:24:48.411Z,5.5
2023-04-25T07:25:56.961Z,5.5
2023-04-25T07:27:05.297Z,5.5
2023-04-25T07:28:13.644Z,5.5
2023-04-25T07:29:22.179Z,5.2
2023-04-25T07:30:30.508Z,5.2
2023-04-25T07:31:38.867Z,5.2
2023-04-25T07:32:47.450Z,4.7
2023-04-25T07:33:55.761Z,4.7
2023-04-25T07:35:04.065Z,4.7
2023-04-25T07:36:12.653Z,4.3
2023-04-25T07:37:20.980Z,4.3
2023-04-25T07:38:29.308Z,4.3
2023-04-25T07:39:37.851Z,4.9
2023-04-25T07:40:46.196Z,4.9
2023-04-25T07:41:55.430Z,4.9
2023-04-25T07:43:03.079Z,4.5
2023-04-25T07:44:11.442Z,4.5
2023-04-25T07:45:19.788Z,4.5
2023-04-25T07:46:28.405Z,4.2
2023-04-25T07:47:36.686Z,4.2
2023-04-25T07:48:45.019Z,4.2
2023-04-25T07:49:53.578Z,4.4
2023-04-25T07:51:01.924Z,4.4
2023-04-25T07:52:10.277Z,4.4
2023-04-25T07:53:18.791Z,5
2023-04-25T07:54:27.143Z,5
2023-04-25T07:55:35.479Z,5
2023-04-25T07:56:51.899Z,4.3
2023-04-25T07:57:52.362Z,4.3
2023-04-25T07:59:00.717Z,4.3
2023-04-25T08:00:09.238Z,3.7
2023-04-25T08:01:17.584Z,3.7
2023-04-25T08:02:25.962Z,3.7
2023-04-25T08:03:34.670Z,3.3
2023-04-25T08:04:42.890Z,3.3
2023-04-25T08:05:51.192Z,3.3
2023-04-25T08:06:59.711Z,3.7
2023-04-25T08:08:08.126Z,3.7
2023-04-25T08:09:16.370Z,3.7
2023-04-25T08:10:24.922Z,4.6
2023-04-25T08:11:33.228Z,4.6
2023-04-25T08:12:41.573Z,4.6
2023-04-25T08:13:50.143Z,4.6
2023-04-25T08:14:58.476Z,4.6
2023-04-25T08:16:06.840Z,4.6
2023-04-25T08:17:15.344Z,4.8
2023-04-25T08:18:23.732Z,4.8
2023-04-25T08:19:32.015Z,4.8
2023-04-25T08:20:40.556Z,4.7
2023-04-25T08:21:48.887Z,4.7
2023-04-25T08:22:57.218Z,4.7
2023-04-25T08:24:05.812Z,3.9
2023-04-25T08:25:14.131Z,3.9
2023-04-25T08:26:22.469Z,3.9
2023-04-25T08:27:31.013Z,3.1
2023-04-25T08:28:39.348Z,3.1
2023-04-25T08:29:47.683Z,3.1
2023-04-25T08:30:56.243Z,2.3
2023-04-25T08:32:04.555Z,2.3
2023-04-25T08:33:12.905Z,2.3
2023-04-25T08:34:21.450Z,2.1
2023-04-25T08:35:29.803Z,2.1
2023-04-25T08:36:40.006Z,2.1
2023-04-25T08:37:46.673Z,2.5
2023-04-25T08:38:55.565Z,2.5
2023-04-25T08:40:03.433Z,2.5
2023-04-25T08:41:11.947Z,2.7
2023-04-25T08:42:20.265Z,2.7
2023-04-25T08:43:28.619Z,2.7
2023-04-25T08:44:37.170Z,3
2023-04-25T08:45:45.508Z,3
2023-04-25T08:46:53.838Z,3
2023-04-25T08:48:02.421Z,3.6
2023-04-25T08:49:10.754Z,3.6
2023-04-25T08:50:19.125Z,3.6
2023-04-25T08:51:27.655Z,3.5
2023-04-25T08:52:35.990Z,3.5
2023-04-25T08:53:46.114Z,3.5
2023-04-25T08:54:52.870Z,3.5
2023-04-25T08:56:01.219Z,3.5
2023-04-25T08:57:09.518Z,3.5
2023-04-25T08:58:18.096Z,3.7
2023-04-25T08:59:26.429Z,3.7
2023-04-25T09:00:34.771Z,3.7
2023-04-25T09:01:43.511Z,3.4
2023-04-25T09:02:51.750Z,3.4
2023-04-25T09:04:00.038Z,3.4
2023-04-25T09:05:08.552Z,3.7
2023-04-25T09:06:16.884Z,3.7
2023-04-25T09:07:25.238Z,3.7
2023-04-25T09:08:33.819Z,3.3
2023-04-25T09:09:42.147Z,3.3
2023-04-25T09:10:50.478Z,3.3
2023-04-25T09:11:59.073Z,3.1
2023-04-25T09:13:07.425Z,3.1
2023-04-25T09:14:15.750Z,3.1
2023-04-25T09:15:24.290Z,3.2
2023-04-25T09:16:33.685Z,3.2
2023-04-25T09:17:41.004Z,3.2
2023-04-25T09:18:49.541Z,2.4
2023-04-25T09:19:57.867Z,2.4
2023-04-25T09:21:12.922Z,2.4
2023-04-25T09:22:14.759Z,2.2
2023-04-25T09:23:23.119Z,2.2
2023-04-25T09:24:31.418Z,2.2
2023-04-25T09:25:40.010Z,2.1
2023-04-25T09:26:48.334Z,2.1
2023-04-25T09:27:56.760Z,2.1
2023-04-25T09:29:05.215Z,2.1
2023-04-25T09:30:13.544Z,2.1
2023-04-25T09:31:21.939Z,2.1
2023-04-25T09:32:30.551Z,2.3
2023-04-25T09:33:38.811Z,2.3
2023-04-25T09:34:47.145Z,2.3
2023-04-25T09:35:55.711Z,3.7
2023-04-25T09:37:04.057Z,3.7
2023-04-25T09:38:12.410Z,3.7
2023-04-25T09:39:20.945Z,3.5
2023-04-25T09:40:29.284Z,3.5
2023-04-25T09:41:37.629Z,3.5
2023-04-25T09:42:46.175Z,3.6
2023-04-25T09:43:54.521Z,3.6
2023-04-25T09:45:02.835Z,3.6
2023-04-25T09:46:11.400Z,3
2023-04-25T09:47:19.774Z,3
2023-04-25T09:48:28.088Z,3
2023-04-25T09:49:36.616Z,3.1
2023-04-25T09:50:44.936Z,3.1
2023-04-25T09:51:53.276Z,3.1
2023-04-25T09:53:01.846Z,3
2023-04-25T09:54:10.190Z,3
2023-04-25T09:55:18.521Z,3
2023-04-25T09:56:27.058Z,3.5
2023-04-25T09:57:35.433Z,3.5
2023-04-25T09:58:43.737Z,3.5
2023-04-25T09:59:52.360Z,3.6
2023-04-25T10:01:00.620Z,3.6
2023-04-25T10:02:08.964Z,3.6
2023-04-25T10:03:17.647Z,3.4
2023-04-25T10:04:25.905Z,3.4
2023-04-25T10:05:34.187Z,3.4
2023-04-25T10:06:42.734Z,3.5
2023-04-25T10:07:51.072Z,3.5
2023-04-25T10:08:59.400Z,3.5
2023-04-25T10:10:07.937Z,2.8
2023-04-25T10:11:16.273Z,2.8
2023-04-25T10:12:24.646Z,2.8
2023-04-25T10:13:33.180Z,2.9
2023-04-25T10:14:41.522Z,2.9
2023-04-25T10:15:49.936Z,2.9
2023-04-25T10:16:58.397Z,2.8
2023-04-25T10:18:06.748Z,2.8
2023-04-25T10:19:15.074Z,2.8
2023-04-25T10:20:23.625Z,2.5
2023-04-25T10:21:31.954Z,2.5
2023-04-25T10:22:40.307Z,2.5
2023-04-25T10:23:49.009Z,3
2023-04-25T10:24:57.188Z,3
2023-04-25T10:26:05.521Z,3
2023-04-25T10:27:14.115Z,2.9
2023-04-25T10:28:22.450Z,2.9
2023-04-25T10:29:30.777Z,2.9
2023-04-25T10:30:39.356Z,3.6
2023-04-25T10:31:47.794Z,3.6
2023-04-25T10:32:56.014Z,3.6
2023-04-25T10:34:04.550Z,3.5
2023-04-25T10:35:12.915Z,3.5
2023-04-25T10:36:21.221Z,3.5
2023-04-25T10:37:29.766Z,3.3
2023-04-25T10:38:38.096Z,3.3
2023-04-25T10:39:47.037Z,3.3
2023-04-25T10:40:55.584Z,3.7
2023-04-25T10:42:03.925Z,3.7
2023-04-25T10:43:13.616Z,3.7
2023-04-25T10:44:20.824Z,4
2023-04-25T10:45:29.282Z,4
2023-04-25T10:46:37.714Z,4
2023-04-25T10:47:46.232Z,3.6
2023-04-25T10:48:54.522Z,3.6
2023-04-25T10:50:02.849Z,3.6
2023-04-25T10:51:11.417Z,4
2023-04-25T10:52:19.739Z,4
2023-04-25T10:53:28.061Z,4
2023-04-25T10:54:36.626Z,3.7
2023-04-25T10:55:44.973Z,3.7
2023-04-25T10:56:53.311Z,3.7
2023-04-25T10:58:01.895Z,4.1
2023-04-25T10:59:10.214Z,4.1
2023-04-25T11:00:18.552Z,4.1
2023-04-25T11:01:27.146Z,4
2023-04-25T11:02:35.543Z,4
2023-04-25T11:03:43.988Z,4
2023-04-25T11:04:52.394Z,4.1
2023-04-25T11:06:00.707Z,4.1
2023-04-25T11:07:09.031Z,4.1
2023-04-25T11:08:17.590Z,4.2
2023-04-25T11:09:25.925Z,4.2
2023-04-25T11:10:34.264Z,4.2
2023-04-25T11:11:42.823Z,4.3
2023-04-25T11:12:51.161Z,4.3
2023-04-25T11:13:59.518Z,4.3
2023-04-25T11:15:08.066Z,4.1
2023-04-25T11:16:23.515Z,4.1
2023-04-25T11:17:24.829Z,4.1
2023-04-25T11:18:33.365Z,3.6
2023-04-25T11:19:41.678Z,3.6
2023-04-25T11:20:49.991Z,3.6
2023-04-25T11:21:58.541Z,3.4
2023-04-25T11:23:06.906Z,3.4
2023-04-25T11:24:15.229Z,3.4
2023-04-25T11:25:23.773Z,2.5
2023-04-25T11:26:32.102Z,2.5
2023-04-25T11:27:40.445Z,2.5
2023-04-25T11:28:48.992Z,2.7
2023-04-25T11:29:57.334Z,2.7
2023-04-25T11:31:05.668Z,2.7
2023-04-25T11:32:14.268Z,2.6
2023-04-25T11:33:22.580Z,2.6
2023-04-25T11:34:30.883Z,2.6
2023-04-25T11:35:39.473Z,2.3
2023-04-25T11:36:47.784Z,2.3
2023-04-25T11:37:56.114Z,2.3
2023-04-25T11:39:04.690Z,1.8
2023-04-25T11:40:13.023Z,1.8
2023-04-25T11:41:21.348Z,1.8
2023-04-25T11:42:29.902Z,2.2
2023-04-25T11:43:38.227Z,2.2
2023-04-25T11:44:46.849Z,2.2
2023-04-25T11:45:55.400Z,2.1
2023-04-25T11:47:03.719Z,2.1
2023-04-25T11:48:12.123Z,2.1
2023-04-25T11:49:20.592Z,1.7
2023-04-25T11:50:28.929Z,1.7
2023-04-25T11:51:37.355Z,1.7
2023-04-25T11:52:45.828Z,1.7
2023-04-25T11:53:54.169Z,1.7
2023-04-25T11:55:02.512Z,1.7
2023-04-25T11:56:11.054Z,2
2023-04-25T11:57:19.383Z,2
2023-04-25T11:58:27.721Z,2
2023-04-25T11:59:36.262Z,1.8
2023-04-25T12:00:50.260Z,1.8
2023-04-25T12:01:52.933Z,1.8
2023-04-25T12:03:01.702Z,2
2023-04-25T12:04:09.928Z,2
2023-04-25T12:06:27.603Z,2.4
2023-04-25T12:07:35.066Z,2.4
2023-04-25T12:08:43.380Z,2.4
2023-04-25T12:09:51.927Z,2.7
2023-04-25T12:11:00.264Z,2.7
2023-04-25T12:12:08.602Z,2.7
2023-04-25T12:13:17.145Z,2.9
2023-04-25T12:14:25.490Z,2.9
2023-04-25T12:15:33.813Z,2.9
2023-04-25T12:16:42.423Z,2.6
2023-04-25T12:17:50.779Z,2.6
2023-04-25T12:18:59.052Z,2.6
2023-04-25T12:20:07.595Z,3.2
2023-04-25T12:21:15.930Z,3.2
2023-04-25T12:22:24.295Z,3.2
2023-04-25T12:23:32.874Z,3.3
2023-04-25T12:24:41.234Z,3.3
2023-04-25T12:25:49.575Z,3.3
2023-04-25T12:26:58.132Z,3
2023-04-25T12:28:06.474Z,3
2023-04-25T12:29:14.826Z,3
2023-04-25T12:30:23.368Z,3.4
2023-04-25T12:31:31.787Z,3.4
2023-04-25T12:32:40.132Z,3.4
2023-04-25T12:33:48.600Z,3.5
2023-04-25T12:34:56.945Z,3.5
2023-04-25T12:36:06.350Z,3.5
2023-04-25T12:37:13.828Z,3.1
2023-04-25T12:38:22.160Z,3.1
2023-04-25T12:39:30.614Z,3.1
2023-04-25T12:40:39.045Z,4.1
2023-04-25T12:41:47.409Z,4.1
2023-04-25T12:42:55.718Z,4.1
2023-04-25T12:44:04.591Z,3.3
2023-04-25T12:45:12.818Z,3.3
2023-04-25T12:46:21.251Z,3.3
2023-04-25T12:47:29.771Z,3
2023-04-25T12:48:38.056Z,3
2023-04-25T12:49:46.398Z,3
2023-04-25T12:50:54.957Z,3.1
2023-04-25T12:52:03.316Z,3.1
2023-04-25T12:53:11.621Z,3.1
2023-04-25T12:54:20.149Z,3
2023-04-25T12:55:28.504Z,3
2023-04-25T12:56:36.824Z,3
2023-04-25T12:57:45.372Z,2.8
2023-04-25T12:58:53.854Z,2.8
2023-04-25T13:00:02.059Z,2.8
2023-04-25T13:01:10.607Z,3.1
2023-04-25T13:02:19.018Z,3.1
2023-04-25T13:03:27.509Z,3.1
2023-04-25T13:04:35.988Z,3.1
2023-04-25T13:05:44.352Z,3.1
2023-04-25T13:06:52.691Z,3.1
2023-04-25T13:08:01.248Z,3.4
2023-04-25T13:09:09.613Z,3.4
2023-04-25T13:10:17.967Z,3.4
2023-04-25T13:11:26.647Z,2.7
2023-04-25T13:12:34.911Z,2.7
2023-04-25T13:13:43.280Z,2.7
2023-04-25T13:14:51.842Z,3.6
2023-04-25T13:16:00.278Z,3.6
2023-04-25T13:17:08.605Z,3.6
2023-04-25T13:18:17.168Z,3.4
2023-04-25T13:19:25.500Z,3.4
2023-04-25T13:20:33.866Z,3.4
2023-04-25T13:21:42.464Z,3.6
2023-04-25T13:22:50.819Z,3.6
2023-04-25T13:23:59.204Z,3.6
2023-04-25T13:25:07.722Z,3.4
2023-04-25T13:26:16.136Z,3.4
2023-04-25T13:27:24.763Z,3.4
2023-04-25T13:28:33.099Z,4.3
2023-04-25T13:29:41.475Z,4.3
2023-04-25T13:30:49.877Z,4.3
2023-04-25T13:31:58.473Z,3.6
2023-04-25T13:33:06.929Z,3.6
2023-04-25T13:34:15.205Z,3.6
2023-04-25T13:35:23.843Z,3.8
2023-04-25T13:36:32.225Z,3.8
2023-04-25T13:37:40.617Z,3.8
2023-04-25T13:38:49.176Z,3.8
2023-04-25T13:39:57.547Z,3.8
2023-04-25T13:41:05.924Z,3.8
2023-04-25T13:42:14.460Z,3
2023-04-25T13:43:22.924Z,3
2023-04-25T13:44:31.192Z,3
2023-04-25T13:45:39.781Z,3
2023-04-25T13:46:48.189Z,3
2023-04-25T13:47:56.502Z,3
2023-04-25T13:49:11.976Z,2.9
2023-04-25T13:50:13.484Z,2.9
2023-04-25T13:51:21.858Z,2.9
2023-04-25T13:52:30.417Z,3
2023-04-25T13:53:38.783Z,3
2023-04-25T13:54:47.120Z,3
2023-04-25T13:55:55.721Z,3.6
2023-04-25T13:57:04.084Z,3.6
2023-04-25T13:58:12.431Z,3.6
2023-04-25T13:59:21.039Z,2.7
2023-04-25T14:00:29.380Z,2.7
2023-04-25T14:01:37.796Z,2.7
2023-04-25T14:02:47.115Z,3
2023-04-25T14:03:54.946Z,3
2023-04-25T14:05:03.120Z,3
2023-04-25T14:06:11.641Z,3.1
2023-04-25T14:07:20.029Z,3.1
2023-04-25T14:08:28.412Z,3.1
2023-04-25T14:09:37.016Z,3.2
2023-04-25T14:10:45.362Z,3.2
2023-04-25T14:11:53.733Z,3.2
2023-04-25T14:13:02.311Z,3
2023-04-25T14:14:10.763Z,3
2023-04-25T14:15:19.134Z,3
2023-04-25T14:16:27.702Z,3.1
2023-04-25T14:17:36.055Z,3.1
2023-04-25T14:18:44.389Z,3.1
2023-04-25T14:19:52.995Z,3.2
2023-04-25T14:21:01.407Z,3.2
2023-04-25T14:22:09.802Z,3.2
2023-04-25T14:23:18.410Z,3.5
2023-04-25T14:24:26.775Z,3.5
2023-04-25T14:25:35.151Z,3.5
2023-04-25T14:26:43.781Z,3.5
2023-04-25T14:27:52.183Z,3.5
2023-04-25T14:29:00.563Z,3.5
2023-04-25T14:30:09.139Z,3.8
2023-04-25T14:31:17.669Z,3.8
2023-04-25T14:32:25.860Z,3.8
2023-04-25T14:33:34.439Z,4
2023-04-25T14:34:42.788Z,4
2023-04-25T14:35:51.190Z,4
2023-04-25T14:36:59.740Z,3.5
2023-04-25T14:38:08.107Z,3.5
2023-04-25T14:39:16.470Z,3.5
2023-04-25T14:40:25.036Z,3.4
2023-04-25T14:41:33.467Z,3.4
2023-04-25T14:42:41.821Z,3.4
2023-04-25T14:43:50.710Z,2.9
2023-04-25T14:44:58.949Z,2.9
2023-04-25T14:46:07.336Z,2.9
2023-04-25T14:47:15.935Z,3.5
2023-04-25T14:48:24.388Z,3.5
2023-04-25T14:49:32.720Z,3.5
2023-04-25T14:50:41.343Z,3.7
2023-04-25T14:51:51.354Z,3.7
2023-04-25T14:52:58.090Z,3.7
2023-04-25T14:54:06.644Z,3.4
2023-04-25T14:55:15.027Z,3.4
2023-04-25T14:56:23.399Z,3.4
2023-04-25T14:57:31.968Z,3.4
2023-04-25T14:58:40.336Z,3.4
2023-04-25T14:59:48.702Z,3.4
2023-04-25T15:00:57.269Z,3.7
2023-04-25T15:02:05.640Z,3.7
2023-04-25T15:03:14.154Z,3.7
2023-04-25T15:04:22.665Z,3.6
2023-04-25T15:38:13.036Z,0
2023-04-25T15:39:21.371Z,0
2023-04-25T15:40:29.734Z,0
2023-04-25T15:41:38.319Z,3.7
2023-04-25T15:42:46.680Z,3.7
2023-04-25T15:43:55.098Z,3.7
2023-04-25T15:45:03.629Z,3.8
2023-04-25T15:46:12.058Z,3.8
2023-04-25T15:47:20.360Z,3.8
2023-04-25T15:48:28.966Z,3
2023-04-25T15:49:37.335Z,3
2023-04-25T15:50:45.704Z,3
2023-04-25T15:51:54.276Z,3.3
2023-04-25T15:53:03.259Z,3.3
2023-04-25T15:54:11.115Z,3.3
2023-04-25T15:55:19.596Z,2.9
2023-04-25T15:56:27.942Z,2.9
2023-04-25T15:57:36.328Z,2.9
2023-04-25T15:58:44.910Z,3.3
2023-04-25T15:59:53.248Z,3.3
2023-04-25T16:01:01.654Z,3.3
2023-04-25T16:02:10.297Z,2.9
2023-04-25T16:03:18.693Z,2.9
2023-04-25T16:04:27.068Z,2.9
2023-04-25T16:05:35.525Z,3
2023-04-25T16:06:43.867Z,3
2023-04-25T16:07:52.241Z,3
2023-04-25T16:09:00.798Z,2.7
2023-04-25T16:10:09.177Z,2.7
2023-04-25T16:11:17.553Z,2.7
2023-04-25T16:12:26.118Z,3.1
2023-04-25T16:13:34.492Z,3.1
2023-04-25T16:14:42.834Z,3.1
2023-04-25T16:15:51.417Z,2.7
2023-04-25T16:17:01.110Z,2.7